sensor_id;sensor_type;location;lat;lon;timestamp;pressure;altitude;pressure_sealevel;temperature
48003;BMP280;33768;48.578;11.574;2023-05-07T00:01:45;96455.78;;;11.22
48003;BMP280;33768;48.578;11.574;2023-05-07T00:04:49;96463.75;;;11.20
48003;BMP280;33768;48.578;11.574;2023-05-07T00:07:53;96467.84;;;11.13
48003;BMP280;33768;48.578;11.574;2023-05-07T00:10:57;96459.88;;;11.02
48003;BMP280;33768;48.578;11.574;2023-05-07T00:14:02;96460.28;;;10.93
48003;BMP280;33768;48.578;11.574;2023-05-07T00:17:06;96460.63;;;10.90
48003;BMP280;33768;48.578;11.574;2023-05-07T00:20:10;96456.22;;;10.87
48003;BMP280;33768;48.578;11.574;2023-05-07T00:23:14;96448.13;;;10.82
48003;BMP280;33768;48.578;11.574;2023-05-07T00:26:18;96454.84;;;10.81
48003;BMP280;33768;48.578;11.574;2023-05-07T00:29:25;96448.44;;;10.78
48003;BMP280;33768;48.578;11.574;2023-05-07T00:32:29;96448.25;;;10.76
48003;BMP280;33768;48.578;11.574;2023-05-07T00:35:33;96446.03;;;10.75
48003;BMP280;33768;48.578;11.574;2023-05-07T00:38:37;96457.16;;;10.77
48003;BMP280;33768;48.578;11.574;2023-05-07T00:41:42;96450.88;;;10.82
48003;BMP280;33768;48.578;11.574;2023-05-07T00:44:46;96444.03;;;10.88
48003;BMP280;33768;48.578;11.574;2023-05-07T00:47:50;96448.13;;;10.94
48003;BMP280;33768;48.578;11.574;2023-05-07T00:50:54;96456.72;;;10.98
48003;BMP280;33768;48.578;11.574;2023-05-07T00:54:00;96458.22;;;10.99
48003;BMP280;33768;48.578;11.574;2023-05-07T00:57:05;96452.19;;;11.01
48003;BMP280;33768;48.578;11.574;2023-05-07T01:00:10;96454.19;;;11.00
48003;BMP280;33768;48.578;11.574;2023-05-07T01:03:16;96455.47;;;10.99
48003;BMP280;33768;48.578;11.574;2023-05-07T01:06:20;96449.59;;;10.95
48003;BMP280;33768;48.578;11.574;2023-05-07T01:09:25;96448.44;;;10.91
48003;BMP280;33768;48.578;11.574;2023-05-07T01:12:30;96443.19;;;10.93
48003;BMP280;33768;48.578;11.574;2023-05-07T01:15:35;96447.41;;;10.94
48003;BMP280;33768;48.578;11.574;2023-05-07T01:18:39;96449.38;;;10.93
48003;BMP280;33768;48.578;11.574;2023-05-07T01:21:46;96433.41;;;10.97
48003;BMP280;33768;48.578;11.574;2023-05-07T01:24:51;96441.19;;;10.93
48003;BMP280;33768;48.578;11.574;2023-05-07T01:27:56;96441.19;;;10.93
48003;BMP280;33768;48.578;11.574;2023-05-07T01:31:04;96431.53;;;10.93
48003;BMP280;33768;48.578;11.574;2023-05-07T01:34:12;96441.19;;;10.93
48003;BMP280;33768;48.578;11.574;2023-05-07T01:37:17;96439.50;;;10.91
48003;BMP280;33768;48.578;11.574;2023-05-07T01:40:21;96431.03;;;10.81
48003;BMP280;33768;48.578;11.574;2023-05-07T01:43:25;96435.09;;;10.75
48003;BMP280;33768;48.578;11.574;2023-05-07T01:46:31;96429.97;;;10.71
48003;BMP280;33768;48.578;11.574;2023-05-07T01:49:35;96428.81;;;10.67
48003;BMP280;33768;48.578;11.574;2023-05-07T01:52:39;96426.41;;;10.63
48003;BMP280;33768;48.578;11.574;2023-05-07T01:55:43;96431.22;;;10.58
48003;BMP280;33768;48.578;11.574;2023-05-07T01:58:48;96428.19;;;10.61
48003;BMP280;33768;48.578;11.574;2023-05-07T02:01:52;96428.59;;;10.65
48003;BMP280;33768;48.578;11.574;2023-05-07T02:04:57;96429.53;;;10.67
48003;BMP280;33768;48.578;11.574;2023-05-07T02:08:02;96433.22;;;10.70
48003;BMP280;33768;48.578;11.574;2023-05-07T02:11:08;96429.75;;;10.69
48003;BMP280;33768;48.578;11.574;2023-05-07T02:14:13;96433.75;;;10.68
48003;BMP280;33768;48.578;11.574;2023-05-07T02:17:18;96429.25;;;10.71
48003;BMP280;33768;48.578;11.574;2023-05-07T02:20:22;96431.22;;;10.70
48003;BMP280;33768;48.578;11.574;2023-05-07T02:23:26;96428.81;;;10.67
48003;BMP280;33768;48.578;11.574;2023-05-07T02:26:30;96435.72;;;10.68
48003;BMP280;33768;48.578;11.574;2023-05-07T02:29:34;96442.25;;;10.65
48003;BMP280;33768;48.578;11.574;2023-05-07T02:32:38;96437.31;;;10.63
48003;BMP280;33768;48.578;11.574;2023-05-07T02:35:43;96435.44;;;10.59
48003;BMP280;33768;48.578;11.574;2023-05-07T02:38:49;96430.28;;;10.55
48003;BMP280;33768;48.578;11.574;2023-05-07T02:41:53;96424.59;;;10.53
48003;BMP280;33768;48.578;11.574;2023-05-07T02:44:58;96433.53;;;10.54
48003;BMP280;33768;48.578;11.574;2023-05-07T02:48:03;96437.50;;;10.53
48003;BMP280;33768;48.578;11.574;2023-05-07T02:51:07;96434.16;;;10.47
48003;BMP280;33768;48.578;11.574;2023-05-07T02:54:13;96434.47;;;10.43
48003;BMP280;33768;48.578;11.574;2023-05-07T02:57:17;96439.00;;;10.41
48003;BMP280;33768;48.578;11.574;2023-05-07T03:00:21;96432.59;;;10.38
48003;BMP280;33768;48.578;11.574;2023-05-07T03:03:33;96443.06;;;10.34
48003;BMP280;33768;48.578;11.574;2023-05-07T03:06:38;96432.97;;;10.30
48003;BMP280;33768;48.578;11.574;2023-05-07T03:09:42;96423.53;;;10.30
48003;BMP280;33768;48.578;11.574;2023-05-07T03:12:46;96426.06;;;10.29
48003;BMP280;33768;48.578;11.574;2023-05-07T03:15:53;96431.09;;;10.25
48003;BMP280;33768;48.578;11.574;2023-05-07T03:18:57;96432.00;;;10.14
48003;BMP280;33768;48.578;11.574;2023-05-07T03:22:02;96431.38;;;10.08
48003;BMP280;33768;48.578;11.574;2023-05-07T03:25:08;96430.66;;;10.08
48003;BMP280;33768;48.578;11.574;2023-05-07T03:28:12;96429.16;;;10.07
48003;BMP280;33768;48.578;11.574;2023-05-07T03:31:29;96429.16;;;10.07
48003;BMP280;33768;48.578;11.574;2023-05-07T03:34:33;96433.38;;;10.08
48003;BMP280;33768;48.578;11.574;2023-05-07T03:37:38;96426.44;;;10.07
48003;BMP280;33768;48.578;11.574;2023-05-07T03:40:42;96428.22;;;10.04
48003;BMP280;33768;48.578;11.574;2023-05-07T03:43:46;96431.47;;;10.03
48003;BMP280;33768;48.578;11.574;2023-05-07T03:46:51;96441.72;;;9.97
48003;BMP280;33768;48.578;11.574;2023-05-07T03:49:55;96442.97;;;9.96
48003;BMP280;33768;48.578;11.574;2023-05-07T03:53:01;96460.59;;;9.95
48003;BMP280;33768;48.578;11.574;2023-05-07T03:56:07;96459.06;;;9.81
48003;BMP280;33768;48.578;11.574;2023-05-07T03:59:15;96455.97;;;9.72
48003;BMP280;33768;48.578;11.574;2023-05-07T04:02:21;96454.66;;;9.78
48003;BMP280;33768;48.578;11.574;2023-05-07T04:05:25;96461.56;;;9.79
48003;BMP280;33768;48.578;11.574;2023-05-07T04:08:34;96468.28;;;9.78
48003;BMP280;33768;48.578;11.574;2023-05-07T04:11:38;96470.41;;;9.85
48003;BMP280;33768;48.578;11.574;2023-05-07T04:14:45;96468.13;;;9.89
48003;BMP280;33768;48.578;11.574;2023-05-07T04:17:50;96462.88;;;9.91
48003;BMP280;33768;48.578;11.574;2023-05-07T04:20:57;96458.69;;;9.90
48003;BMP280;33768;48.578;11.574;2023-05-07T04:24:03;96460.22;;;9.86
48003;BMP280;33768;48.578;11.574;2023-05-07T04:27:07;96462.00;;;9.83
48003;BMP280;33768;48.578;11.574;2023-05-07T04:30:12;96460.72;;;9.84
48003;BMP280;33768;48.578;11.574;2023-05-07T04:33:16;96459.28;;;9.83
48003;BMP280;33768;48.578;11.574;2023-05-07T04:36:22;96460.38;;;9.93
48003;BMP280;33768;48.578;11.574;2023-05-07T04:39:36;96467.13;;;10.05
48003;BMP280;33768;48.578;11.574;2023-05-07T04:42:41;96467.78;;;10.11
48003;BMP280;33768;48.578;11.574;2023-05-07T04:45:45;96456.25;;;10.18
48003;BMP280;33768;48.578;11.574;2023-05-07T04:48:50;96462.78;;;10.28
48003;BMP280;33768;48.578;11.574;2023-05-07T04:51:54;96458.59;;;10.39
48003;BMP280;33768;48.578;11.574;2023-05-07T04:55:00;96456.31;;;10.56
48003;BMP280;33768;48.578;11.574;2023-05-07T04:58:07;96459.56;;;10.67
48003;BMP280;33768;48.578;11.574;2023-05-07T05:01:13;96460.63;;;10.77
48003;BMP280;33768;48.578;11.574;2023-05-07T05:04:18;96467.13;;;11.00
48003;BMP280;33768;48.578;11.574;2023-05-07T05:07:22;96463.50;;;11.30
48003;BMP280;33768;48.578;11.574;2023-05-07T05:10:26;96465.19;;;11.46
48003;BMP280;33768;48.578;11.574;2023-05-07T05:13:30;96473.56;;;11.61
48003;BMP280;33768;48.578;11.574;2023-05-07T05:16:35;96476.13;;;11.79
48003;BMP280;33768;48.578;11.574;2023-05-07T05:19:39;96472.41;;;11.89
48003;BMP280;33768;48.578;11.574;2023-05-07T05:22:43;96469.75;;;11.97
48003;BMP280;33768;48.578;11.574;2023-05-07T05:25:49;96463.28;;;12.07
48003;BMP280;33768;48.578;11.574;2023-05-07T05:28:53;96466.09;;;12.15
48003;BMP280;33768;48.578;11.574;2023-05-07T05:32:00;96461.41;;;12.22
48003;BMP280;33768;48.578;11.574;2023-05-07T05:35:07;96475.16;;;12.30
48003;BMP280;33768;48.578;11.574;2023-05-07T05:38:13;96458.66;;;12.43
48003;BMP280;33768;48.578;11.574;2023-05-07T05:41:18;96461.13;;;12.53
48003;BMP280;33768;48.578;11.574;2023-05-07T05:44:22;96464.25;;;12.57
48003;BMP280;33768;48.578;11.574;2023-05-07T05:47:26;96464.94;;;12.50
48003;BMP280;33768;48.578;11.574;2023-05-07T05:50:33;96464.00;;;12.48
48003;BMP280;33768;48.578;11.574;2023-05-07T05:53:37;96453.44;;;12.52
48003;BMP280;33768;48.578;11.574;2023-05-07T05:56:41;96470.84;;;12.62
48003;BMP280;33768;48.578;11.574;2023-05-07T05:59:46;96469.53;;;12.76
48003;BMP280;33768;48.578;11.574;2023-05-07T06:02:51;96477.97;;;12.85
48003;BMP280;33768;48.578;11.574;2023-05-07T06:06:00;96476.56;;;13.26
48003;BMP280;33768;48.578;11.574;2023-05-07T06:09:04;96478.66;;;13.41
48003;BMP280;33768;48.578;11.574;2023-05-07T06:12:15;96474.03;;;13.28
48003;BMP280;33768;48.578;11.574;2023-05-07T06:15:19;96474.34;;;13.25
48003;BMP280;33768;48.578;11.574;2023-05-07T06:18:25;96485.31;;;13.25
48003;BMP280;33768;48.578;11.574;2023-05-07T06:21:29;96486.44;;;13.29
48003;BMP280;33768;48.578;11.574;2023-05-07T06:24:34;96491.97;;;13.37
48003;BMP280;33768;48.578;11.574;2023-05-07T06:27:38;96486.13;;;13.40
48003;BMP280;33768;48.578;11.574;2023-05-07T06:30:43;96495.44;;;13.37
48003;BMP280;33768;48.578;11.574;2023-05-07T06:33:48;96494.59;;;13.49
48003;BMP280;33768;48.578;11.574;2023-05-07T06:36:53;96493.72;;;13.62
48003;BMP280;33768;48.578;11.574;2023-05-07T06:40:17;96504.03;;;13.76
48003;BMP280;33768;48.578;11.574;2023-05-07T06:43:22;96500.63;;;13.98
48003;BMP280;33768;48.578;11.574;2023-05-07T06:46:33;96504.84;;;14.13
48003;BMP280;33768;48.578;11.574;2023-05-07T06:49:37;96511.28;;;14.23
48003;BMP280;33768;48.578;11.574;2023-05-07T06:52:41;96499.59;;;14.45
48003;BMP280;33768;48.578;11.574;2023-05-07T06:55:45;96499.44;;;14.72
48003;BMP280;33768;48.578;11.574;2023-05-07T06:58:50;96497.75;;;14.92
48003;BMP280;33768;48.578;11.574;2023-05-07T07:01:55;96505.06;;;15.19
48003;BMP280;33768;48.578;11.574;2023-05-07T07:05:00;96506.81;;;15.53
48003;BMP280;33768;48.578;11.574;2023-05-07T07:08:04;96514.38;;;15.84
48003;BMP280;33768;48.578;11.574;2023-05-07T07:11:09;96507.63;;;16.09
48003;BMP280;33768;48.578;11.574;2023-05-07T07:14:14;96499.41;;;16.41
48003;BMP280;33768;48.578;11.574;2023-05-07T07:17:24;96499.16;;;16.70
48003;BMP280;33768;48.578;11.574;2023-05-07T07:20:29;96507.41;;;16.94
48003;BMP280;33768;48.578;11.574;2023-05-07T07:23:34;96502.19;;;17.23
48003;BMP280;33768;48.578;11.574;2023-05-07T07:26:38;96510.66;;;17.41
48003;BMP280;33768;48.578;11.574;2023-05-07T07:29:44;96510.91;;;17.69
48003;BMP280;33768;48.578;11.574;2023-05-07T07:32:49;96500.13;;;18.07
48003;BMP280;33768;48.578;11.574;2023-05-07T07:35:55;96510.44;;;18.58
48003;BMP280;33768;48.578;11.574;2023-05-07T07:38:59;96504.94;;;19.12
48003;BMP280;33768;48.578;11.574;2023-05-07T07:42:03;96492.63;;;19.51
48003;BMP280;33768;48.578;11.574;2023-05-07T07:45:08;96501.38;;;19.75
48003;BMP280;33768;48.578;11.574;2023-05-07T07:48:16;96505.13;;;20.17
48003;BMP280;33768;48.578;11.574;2023-05-07T07:51:20;96497.28;;;20.53
48003;BMP280;33768;48.578;11.574;2023-05-07T07:54:25;96501.44;;;20.82
48003;BMP280;33768;48.578;11.574;2023-05-07T07:57:29;96495.88;;;21.54
48003;BMP280;33768;48.578;11.574;2023-05-07T08:00:33;96499.53;;;22.09
48003;BMP280;33768;48.578;11.574;2023-05-07T08:03:38;96506.00;;;22.34
48003;BMP280;33768;48.578;11.574;2023-05-07T08:06:42;96501.13;;;22.89
48003;BMP280;33768;48.578;11.574;2023-05-07T08:09:48;96509.50;;;23.70
48003;BMP280;33768;48.578;11.574;2023-05-07T08:12:54;96501.56;;;24.77
48003;BMP280;33768;48.578;11.574;2023-05-07T08:15:58;96489.63;;;25.41
48003;BMP280;33768;48.578;11.574;2023-05-07T08:19:02;96506.59;;;25.05
48003;BMP280;33768;48.578;11.574;2023-05-07T08:22:07;96506.28;;;24.85
48003;BMP280;33768;48.578;11.574;2023-05-07T08:25:12;96505.75;;;25.42
48003;BMP280;33768;48.578;11.574;2023-05-07T08:28:16;96509.81;;;25.52
48003;BMP280;33768;48.578;11.574;2023-05-07T08:31:20;96502.59;;;25.89
48003;BMP280;33768;48.578;11.574;2023-05-07T08:34:25;96487.66;;;27.01
48003;BMP280;33768;48.578;11.574;2023-05-07T08:37:30;96485.81;;;27.53
48003;BMP280;33768;48.578;11.574;2023-05-07T08:40:37;96486.84;;;26.99
48003;BMP280;33768;48.578;11.574;2023-05-07T08:43:47;96483.44;;;26.85
48003;BMP280;33768;48.578;11.574;2023-05-07T08:46:53;96480.75;;;26.43
48003;BMP280;33768;48.578;11.574;2023-05-07T08:49:59;96482.44;;;26.78
48003;BMP280;33768;48.578;11.574;2023-05-07T08:53:03;96480.09;;;26.01
48003;BMP280;33768;48.578;11.574;2023-05-07T08:56:09;96476.34;;;26.09
48003;BMP280;33768;48.578;11.574;2023-05-07T08:59:14;96479.56;;;27.07
48003;BMP280;33768;48.578;11.574;2023-05-07T09:02:19;96482.59;;;27.13
48003;BMP280;33768;48.578;11.574;2023-05-07T09:05:23;96477.47;;;27.55
48003;BMP280;33768;48.578;11.574;2023-05-07T09:08:28;96476.63;;;28.18
48003;BMP280;33768;48.578;11.574;2023-05-07T09:11:36;96481.88;;;29.17
48003;BMP280;33768;48.578;11.574;2023-05-07T09:14:40;96477.34;;;29.47
48003;BMP280;33768;48.578;11.574;2023-05-07T09:17:44;96480.94;;;29.49
48003;BMP280;33768;48.578;11.574;2023-05-07T09:20:49;96483.88;;;28.42
48003;BMP280;33768;48.578;11.574;2023-05-07T09:23:56;96485.66;;;27.49
48003;BMP280;33768;48.578;11.574;2023-05-07T09:27:07;96475.81;;;28.15
48003;BMP280;33768;48.578;11.574;2023-05-07T09:30:13;96479.63;;;28.41
48003;BMP280;33768;48.578;11.574;2023-05-07T09:33:17;96469.94;;;28.27
48003;BMP280;33768;48.578;11.574;2023-05-07T09:36:26;96477.66;;;28.26
48003;BMP280;33768;48.578;11.574;2023-05-07T09:39:47;96481.66;;;28.04
48003;BMP280;33768;48.578;11.574;2023-05-07T09:42:53;96473.06;;;28.52
48003;BMP280;33768;48.578;11.574;2023-05-07T09:45:58;96468.50;;;28.79
48003;BMP280;33768;48.578;11.574;2023-05-07T09:49:07;96470.69;;;28.81
48003;BMP280;33768;48.578;11.574;2023-05-07T09:52:15;96469.94;;;28.80
48003;BMP280;33768;48.578;11.574;2023-05-07T09:55:27;96475.09;;;27.65
48003;BMP280;33768;48.578;11.574;2023-05-07T09:58:32;96474.63;;;26.31
48003;BMP280;33768;48.578;11.574;2023-05-07T10:01:38;96474.31;;;27.00
48003;BMP280;33768;48.578;11.574;2023-05-07T10:04:44;96464.72;;;27.85
48003;BMP280;33768;48.578;11.574;2023-05-07T10:07:50;96468.81;;;28.33
48003;BMP280;33768;48.578;11.574;2023-05-07T10:10:55;96480.22;;;28.03
48003;BMP280;33768;48.578;11.574;2023-05-07T10:14:03;96461.19;;;28.70
48003;BMP280;33768;48.578;11.574;2023-05-07T10:17:11;96466.66;;;29.05
48003;BMP280;33768;48.578;11.574;2023-05-07T10:20:17;96478.72;;;27.20
48003;BMP280;33768;48.578;11.574;2023-05-07T10:23:23;96467.09;;;26.95
48003;BMP280;33768;48.578;11.574;2023-05-07T10:26:32;96463.28;;;26.88
48003;BMP280;33768;48.578;11.574;2023-05-07T10:33:10;96459.97;;;26.92
48003;BMP280;33768;48.578;11.574;2023-05-07T10:36:21;96462.84;;;27.09
48003;BMP280;33768;48.578;11.574;2023-05-07T10:39:27;96464.19;;;27.08
48003;BMP280;33768;48.578;11.574;2023-05-07T10:42:31;96458.38;;;26.43
48003;BMP280;33768;48.578;11.574;2023-05-07T10:45:36;96461.63;;;27.29
48003;BMP280;33768;48.578;11.574;2023-05-07T10:52:35;96449.94;;;29.47
48003;BMP280;33768;48.578;11.574;2023-05-07T10:55:50;96452.78;;;29.09
48003;BMP280;33768;48.578;11.574;2023-05-07T11:06:16;96445.53;;;29.61
48003;BMP280;33768;48.578;11.574;2023-05-07T11:12:55;96443.94;;;30.18
48003;BMP280;33768;48.578;11.574;2023-05-07T11:19:48;96435.38;;;31.32
48003;BMP280;33768;48.578;11.574;2023-05-07T11:22:53;96431.47;;;31.70
48003;BMP280;33768;48.578;11.574;2023-05-07T11:26:10;96433.09;;;31.77
48003;BMP280;33768;48.578;11.574;2023-05-07T11:29:18;96430.41;;;31.82
48003;BMP280;33768;48.578;11.574;2023-05-07T11:32:25;96428.69;;;31.72
48003;BMP280;33768;48.578;11.574;2023-05-07T11:35:31;96428.22;;;31.54
48003;BMP280;33768;48.578;11.574;2023-05-07T11:38:37;96429.19;;;31.64
48003;BMP280;33768;48.578;11.574;2023-05-07T11:41:42;96434.25;;;31.68
48003;BMP280;33768;48.578;11.574;2023-05-07T11:44:46;96431.16;;;31.58
48003;BMP280;33768;48.578;11.574;2023-05-07T11:47:52;96427.34;;;30.72
48003;BMP280;33768;48.578;11.574;2023-05-07T11:51:02;96421.59;;;30.93
48003;BMP280;33768;48.578;11.574;2023-05-07T11:54:06;96426.78;;;31.78
48003;BMP280;33768;48.578;11.574;2023-05-07T11:57:15;96416.06;;;32.02
48003;BMP280;33768;48.578;11.574;2023-05-07T12:00:19;96423.03;;;31.19
48003;BMP280;33768;48.578;11.574;2023-05-07T12:03:24;96426.56;;;29.62
48003;BMP280;33768;48.578;11.574;2023-05-07T12:06:28;96420.59;;;29.71
48003;BMP280;33768;48.578;11.574;2023-05-07T12:09:33;96429.19;;;29.37
48003;BMP280;33768;48.578;11.574;2023-05-07T12:12:41;96425.13;;;29.61
48003;BMP280;33768;48.578;11.574;2023-05-07T12:15:55;96416.28;;;29.49
48003;BMP280;33768;48.578;11.574;2023-05-07T12:19:00;96416.28;;;29.49
48003;BMP280;33768;48.578;11.574;2023-05-07T12:22:04;96413.66;;;29.15
48003;BMP280;33768;48.578;11.574;2023-05-07T12:25:09;96418.31;;;29.47
48003;BMP280;33768;48.578;11.574;2023-05-07T12:28:17;96412.44;;;30.02
48003;BMP280;33768;48.578;11.574;2023-05-07T12:31:21;96400.47;;;30.23
48003;BMP280;33768;48.578;11.574;2023-05-07T12:34:25;96404.69;;;29.60
48003;BMP280;33768;48.578;11.574;2023-05-07T12:37:29;96403.22;;;28.79
48003;BMP280;33768;48.578;11.574;2023-05-07T12:40:38;96399.75;;;28.44
48003;BMP280;33768;48.578;11.574;2023-05-07T12:43:46;96414.19;;;27.18
48003;BMP280;33768;48.578;11.574;2023-05-07T12:46:51;96408.38;;;26.51
48003;BMP280;33768;48.578;11.574;2023-05-07T12:49:55;96404.59;;;26.44
48003;BMP280;33768;48.578;11.574;2023-05-07T12:53:00;96396.09;;;26.27
48003;BMP280;33768;48.578;11.574;2023-05-07T12:56:05;96394.09;;;26.45
48003;BMP280;33768;48.578;11.574;2023-05-07T12:59:09;96388.88;;;26.38
48003;BMP280;33768;48.578;11.574;2023-05-07T13:02:13;96389.06;;;26.72
48003;BMP280;33768;48.578;11.574;2023-05-07T13:05:19;96394.09;;;26.45
48003;BMP280;33768;48.578;11.574;2023-05-07T13:08:32;96386.28;;;25.98
48003;BMP280;33768;48.578;11.574;2023-05-07T13:11:36;96387.91;;;26.03
48003;BMP280;33768;48.578;11.574;2023-05-07T13:14:40;96382.81;;;25.84
48003;BMP280;33768;48.578;11.574;2023-05-07T13:17:44;96394.03;;;25.55
48003;BMP280;33768;48.578;11.574;2023-05-07T13:20:48;96382.63;;;25.51
48003;BMP280;33768;48.578;11.574;2023-05-07T13:23:53;96392.13;;;25.18
48003;BMP280;33768;48.578;11.574;2023-05-07T13:26:57;96383.84;;;25.20
48003;BMP280;33768;48.578;11.574;2023-05-07T13:30:01;96381.44;;;25.28
48003;BMP280;33768;48.578;11.574;2023-05-07T13:33:05;96379.31;;;25.42
48003;BMP280;33768;48.578;11.574;2023-05-07T13:36:09;96373.56;;;25.24
48003;BMP280;33768;48.578;11.574;2023-05-07T13:39:13;96375.53;;;25.22
48003;BMP280;33768;48.578;11.574;2023-05-07T13:42:17;96384.00;;;25.50
48003;BMP280;33768;48.578;11.574;2023-05-07T13:45:21;96380.28;;;25.75
48003;BMP280;33768;48.578;11.574;2023-05-07T13:48:29;96378.44;;;26.09
48003;BMP280;33768;48.578;11.574;2023-05-07T13:51:33;96380.69;;;26.13
48003;BMP280;33768;48.578;11.574;2023-05-07T13:54:38;96380.56;;;26.24
48003;BMP280;33768;48.578;11.574;2023-05-07T13:57:42;96373.00;;;26.27
48003;BMP280;33768;48.578;11.574;2023-05-07T14:00:46;96366.50;;;26.22
48003;BMP280;33768;48.578;11.574;2023-05-07T14:03:50;96383.22;;;25.63
48003;BMP280;33768;48.578;11.574;2023-05-07T14:06:54;96376.09;;;25.05
48003;BMP280;33768;48.578;11.574;2023-05-07T14:09:58;96392.22;;;24.80
48003;BMP280;33768;48.578;11.574;2023-05-07T14:13:02;96395.09;;;24.55
48003;BMP280;33768;48.578;11.574;2023-05-07T14:16:06;96397.88;;;24.42
48003;BMP280;33768;48.578;11.574;2023-05-07T14:19:11;96393.34;;;24.49
48003;BMP280;33768;48.578;11.574;2023-05-07T14:22:16;96391.19;;;24.47
48003;BMP280;33768;48.578;11.574;2023-05-07T14:25:20;96401.38;;;24.29
48003;BMP280;33768;48.578;11.574;2023-05-07T14:28:27;96394.25;;;24.02
48003;BMP280;33768;48.578;11.574;2023-05-07T14:31:31;96393.94;;;23.71
48003;BMP280;33768;48.578;11.574;2023-05-07T14:34:36;96395.00;;;23.42
48003;BMP280;33768;48.578;11.574;2023-05-07T14:37:40;96400.59;;;23.42
48003;BMP280;33768;48.578;11.574;2023-05-07T14:40:45;96395.88;;;23.33
48003;BMP280;33768;48.578;11.574;2023-05-07T14:43:49;96408.03;;;23.26
48003;BMP280;33768;48.578;11.574;2023-05-07T14:46:54;96409.22;;;23.23
48003;BMP280;33768;48.578;11.574;2023-05-07T14:49:58;96402.53;;;23.03
48003;BMP280;33768;48.578;11.574;2023-05-07T14:53:04;96398.91;;;22.90
48003;BMP280;33768;48.578;11.574;2023-05-07T14:56:08;96411.34;;;22.77
48003;BMP280;33768;48.578;11.574;2023-05-07T14:59:12;96405.44;;;22.71
48003;BMP280;33768;48.578;11.574;2023-05-07T15:02:16;96400.59;;;22.60
48003;BMP280;33768;48.578;11.574;2023-05-07T15:05:21;96405.44;;;22.49
48003;BMP280;33768;48.578;11.574;2023-05-07T15:08:25;96407.25;;;22.44
48003;BMP280;33768;48.578;11.574;2023-05-07T15:11:29;96396.63;;;22.41
48003;BMP280;33768;48.578;11.574;2023-05-07T15:14:34;96397.84;;;22.38
48003;BMP280;33768;48.578;11.574;2023-05-07T15:17:38;96395.88;;;22.29
48003;BMP280;33768;48.578;11.574;2023-05-07T15:20:42;96404.94;;;22.18
48003;BMP280;33768;48.578;11.574;2023-05-07T15:23:46;96397.06;;;22.15
48003;BMP280;33768;48.578;11.574;2023-05-07T15:26:51;96393.56;;;22.14
48003;BMP280;33768;48.578;11.574;2023-05-07T15:29:56;96394.91;;;22.13
48003;BMP280;33768;48.578;11.574;2023-05-07T15:33:01;96393.75;;;22.07
48003;BMP280;33768;48.578;11.574;2023-05-07T15:36:06;96395.69;;;22.04
48003;BMP280;33768;48.578;11.574;2023-05-07T15:39:10;96391.47;;;22.03
48003;BMP280;33768;48.578;11.574;2023-05-07T15:42:14;96399.69;;;22.01
48003;BMP280;33768;48.578;11.574;2023-05-07T15:45:18;96403.06;;;22.00
48003;BMP280;33768;48.578;11.574;2023-05-07T15:48:23;96402.94;;;21.98
48003;BMP280;33768;48.578;11.574;2023-05-07T15:51:27;96408.84;;;21.93
48003;BMP280;33768;48.578;11.574;2023-05-07T15:54:33;96411.25;;;21.87
48003;BMP280;33768;48.578;11.574;2023-05-07T15:57:37;96407.81;;;21.77
48003;BMP280;33768;48.578;11.574;2023-05-07T16:00:41;96402.50;;;21.69
48003;BMP280;33768;48.578;11.574;2023-05-07T16:03:45;96410.22;;;21.60
48003;BMP280;33768;48.578;11.574;2023-05-07T16:06:49;96404.00;;;21.50
48003;BMP280;33768;48.578;11.574;2023-05-07T16:09:53;96399.53;;;21.45
48003;BMP280;33768;48.578;11.574;2023-05-07T16:12:57;96403.09;;;21.36
48003;BMP280;33768;48.578;11.574;2023-05-07T16:16:01;96402.97;;;21.34
48003;BMP280;33768;48.578;11.574;2023-05-07T16:19:06;96398.44;;;21.29
48003;BMP280;33768;48.578;11.574;2023-05-07T16:22:14;96400.97;;;21.25
48003;BMP280;33768;48.578;11.574;2023-05-07T16:25:18;96401.31;;;21.20
48003;BMP280;33768;48.578;11.574;2023-05-07T16:28:22;96407.06;;;21.12
48003;BMP280;33768;48.578;11.574;2023-05-07T16:31:26;96397.59;;;21.06
48003;BMP280;33768;48.578;11.574;2023-05-07T16:34:30;96404.22;;;21.01
48003;BMP280;33768;48.578;11.574;2023-05-07T16:37:34;96403.09;;;20.95
48003;BMP280;33768;48.578;11.574;2023-05-07T16:40:39;96413.91;;;20.91
48003;BMP280;33768;48.578;11.574;2023-05-07T16:43:43;96418.34;;;20.84
48003;BMP280;33768;48.578;11.574;2023-05-07T16:46:47;96419.97;;;20.78
48003;BMP280;33768;48.578;11.574;2023-05-07T16:49:51;96420.03;;;20.69
48003;BMP280;33768;48.578;11.574;2023-05-07T16:52:55;96415.53;;;20.64
48003;BMP280;33768;48.578;11.574;2023-05-07T16:56:04;96419.22;;;20.57
48003;BMP280;33768;48.578;11.574;2023-05-07T16:59:08;96422.75;;;20.48
48003;BMP280;33768;48.578;11.574;2023-05-07T17:02:12;96432.69;;;20.41
48003;BMP280;33768;48.578;11.574;2023-05-07T17:05:16;96428.78;;;20.35
48003;BMP280;33768;48.578;11.574;2023-05-07T17:08:22;96430.41;;;20.29
48003;BMP280;33768;48.578;11.574;2023-05-07T17:11:26;96443.84;;;20.23
48003;BMP280;33768;48.578;11.574;2023-05-07T17:14:33;96443.28;;;20.15
48003;BMP280;33768;48.578;11.574;2023-05-07T17:17:39;96444.63;;;20.05
48003;BMP280;33768;48.578;11.574;2023-05-07T17:20:42;96446.69;;;19.95
48003;BMP280;33768;48.578;11.574;2023-05-07T17:23:46;96448.19;;;19.86
48003;BMP280;33768;48.578;11.574;2023-05-07T17:26:50;96460.69;;;19.78
48003;BMP280;33768;48.578;11.574;2023-05-07T17:29:54;96461.44;;;19.69
48003;BMP280;33768;48.578;11.574;2023-05-07T17:32:58;96464.66;;;19.56
48003;BMP280;33768;48.578;11.574;2023-05-07T17:36:02;96467.88;;;19.53
48003;BMP280;33768;48.578;11.574;2023-05-07T17:39:06;96462.75;;;19.49
48003;BMP280;33768;48.578;11.574;2023-05-07T17:42:11;96466.97;;;19.41
48003;BMP280;33768;48.578;11.574;2023-05-07T17:45:15;96473.94;;;19.33
48003;BMP280;33768;48.578;11.574;2023-05-07T17:48:19;96480.06;;;19.22
48003;BMP280;33768;48.578;11.574;2023-05-07T17:51:24;96477.44;;;19.14
48003;BMP280;33768;48.578;11.574;2023-05-07T17:54:32;96479.19;;;19.10